createdAt,value
2017-05-27T00:01:13.210Z,64.30
2017-05-27T00:03:40.495Z,64.30
2017-05-27T00:06:07.841Z,64.40
2017-05-27T00:08:35.130Z,64.30
2017-05-27T00:11:02.421Z,64.30
2017-05-27T00:13:29.757Z,64.30
2017-05-27T00:15:57.158Z,64.40
2017-05-27T00:18:24.498Z,64.40
2017-05-27T00:20:51.845Z,64.50
2017-05-27T00:23:19.205Z,64.40
2017-05-27T00:25:46.562Z,64.30
2017-05-27T00:28:13.887Z,64.30
2017-05-27T00:30:41.165Z,64.30
2017-05-27T00:33:08.531Z,64.40
2017-05-27T00:35:35.881Z,64.40
2017-05-27T00:38:03.237Z,64.50
2017-05-27T00:40:30.596Z,64.60
2017-05-27T00:42:57.926Z,64.60
2017-05-27T00:45:25.212Z,64.60
2017-05-27T00:47:52.096Z,64.50
2017-05-27T00:50:19.510Z,64.70
2017-05-27T00:52:46.450Z,64.70
2017-05-27T00:55:13.733Z,64.70
2017-05-27T00:57:41.163Z,64.90
2017-05-27T01:00:08.446Z,65.00
2017-05-27T01:02:35.339Z,65.00
2017-05-27T01:05:02.722Z,65.10
2017-05-27T01:07:30.011Z,65.10
2017-05-27T01:09:56.922Z,65.10
2017-05-27T01:12:24.290Z,65.30
2017-05-27T01:14:51.638Z,65.30
2017-05-27T01:17:18.975Z,65.30
2017-05-27T01:19:45.929Z,65.20
2017-05-27T01:22:12.881Z,65.30
2017-05-27T01:24:40.166Z,65.40
2017-05-27T01:27:07.518Z,65.40
2017-05-27T01:29:34.437Z,65.40
2017-05-27T01:32:01.714Z,65.40
2017-05-27T01:34:29.150Z,65.60
2017-05-27T01:36:56.449Z,65.40
2017-05-27T01:39:23.338Z,65.40
2017-05-27T01:41:50.660Z,65.60
2017-05-27T01:44:17.955Z,65.60
2017-05-27T01:46:45.243Z,65.50
2017-05-27T01:49:12.578Z,65.50
2017-05-27T01:51:39.514Z,65.50
2017-05-27T01:54:06.870Z,65.40
2017-05-27T01:56:33.801Z,65.40
2017-05-27T01:59:01.172Z,65.50
2017-05-27T02:01:28.541Z,65.40
2017-05-27T02:03:55.887Z,65.50
2017-05-27T02:06:23.170Z,65.50
2017-05-27T02:08:50.455Z,65.60
2017-05-27T02:11:17.437Z,65.70
2017-05-27T02:13:44.382Z,65.70
2017-05-27T02:16:11.738Z,65.80
2017-05-27T02:18:39.022Z,65.70
2017-05-27T02:21:05.942Z,65.70
2017-05-27T02:23:32.890Z,65.70
2017-05-27T02:26:00.169Z,65.70
2017-05-27T02:28:27.502Z,65.80
2017-05-27T02:30:54.875Z,65.90
2017-05-27T02:33:22.158Z,65.90
2017-05-27T02:35:49.462Z,65.80
2017-05-27T02:38:16.917Z,65.80
2017-05-27T02:40:44.270Z,65.90
2017-05-27T02:43:11.160Z,65.90
2017-05-27T02:45:38.577Z,65.90
2017-05-27T02:48:05.527Z,65.90
2017-05-27T02:50:32.474Z,65.90
2017-05-27T02:52:59.833Z,66.10
2017-05-27T02:55:27.192Z,66.00
2017-05-27T02:57:54.131Z,66.00
2017-05-27T03:00:21.501Z,66.30
2017-05-27T03:02:48.838Z,66.50
2017-05-27T03:05:16.199Z,66.30
2017-05-27T03:07:43.557Z,66.60
2017-05-27T03:10:10.906Z,66.60
2017-05-27T03:12:38.270Z,66.80
2017-05-27T03:15:05.599Z,66.60
2017-05-27T03:17:32.570Z,66.60
2017-05-27T03:19:59.861Z,67.30
2017-05-27T03:22:27.189Z,67.00
2017-05-27T03:24:54.467Z,66.90
2017-05-27T03:27:21.759Z,67.50
2017-05-27T03:29:49.137Z,67.70
2017-05-27T03:32:16.427Z,67.70
2017-05-27T03:34:43.708Z,68.10
2017-05-27T03:37:10.693Z,68.10
2017-05-27T03:39:37.976Z,68.20
2017-05-27T03:42:05.265Z,68.10
2017-05-27T03:44:32.257Z,68.10
2017-05-27T03:46:59.618Z,68.90
2017-05-27T03:49:26.974Z,68.80
2017-05-27T03:51:54.330Z,68.80
2017-05-27T03:54:21.642Z,69.10
2017-05-27T03:56:48.939Z,69.30
2017-05-27T03:59:16.299Z,69.30
2017-05-27T04:01:43.591Z,69.40
2017-05-27T04:04:10.874Z,69.60
2017-05-27T04:06:38.240Z,69.20
2017-05-27T04:09:05.202Z,69.20
2017-05-27T04:11:32.560Z,69.10
2017-05-27T04:13:59.905Z,69.00
2017-05-27T04:16:27.210Z,69.00
2017-05-27T04:18:54.494Z,68.80
2017-05-27T04:21:21.421Z,68.80
2017-05-27T04:23:48.709Z,69.10
2017-05-27T04:26:15.997Z,69.30
2017-05-27T04:28:43.319Z,69.60
2017-05-27T04:31:10.205Z,69.60
2017-05-27T04:33:37.528Z,70.00
2017-05-27T04:36:04.891Z,69.90
2017-05-27T04:38:31.833Z,69.90
2017-05-27T04:40:59.186Z,69.30
2017-05-27T04:43:26.549Z,69.40
2017-05-27T04:45:53.901Z,69.20
2017-05-27T04:48:21.271Z,69.70
2017-05-27T04:50:48.617Z,69.40
2017-05-27T04:53:15.562Z,69.40
2017-05-27T04:55:42.918Z,68.70
2017-05-27T04:58:10.439Z,68.70
2017-05-27T05:00:37.735Z,68.60
2017-05-27T05:03:05.058Z,68.40
2017-05-27T05:05:32.414Z,69.00
2017-05-27T05:07:59.706Z,68.50
2017-05-27T05:10:27.030Z,67.90
2017-05-27T05:12:54.371Z,67.70
2017-05-27T05:15:21.725Z,67.60
2017-05-27T05:17:49.082Z,67.90
2017-05-27T05:20:16.372Z,67.20
2017-05-27T05:22:43.794Z,67.60
2017-05-27T05:25:11.129Z,67.30
2017-05-27T05:27:38.406Z,67.40
2017-05-27T05:30:05.733Z,67.00
2017-05-27T05:32:33.022Z,66.70
2017-05-27T05:35:00.370Z,66.50
2017-05-27T05:37:27.702Z,66.40
2017-05-27T05:39:54.991Z,66.40
2017-05-27T05:42:22.270Z,66.40
2017-05-27T05:44:49.606Z,66.20
2017-05-27T05:47:16.945Z,66.10
2017-05-27T05:49:44.303Z,66.00
2017-05-27T05:52:11.345Z,66.00
2017-05-27T05:54:38.701Z,66.10
2017-05-27T05:57:06.062Z,65.70
2017-05-27T05:59:33.410Z,66.00
2017-05-27T06:02:00.769Z,66.00
2017-05-27T06:04:28.054Z,65.80
2017-05-27T06:06:55.383Z,65.70
2017-05-27T06:09:22.330Z,65.70
2017-05-27T06:11:49.685Z,66.00
2017-05-27T06:14:17.038Z,66.00
2017-05-27T06:16:44.401Z,65.80
2017-05-27T06:19:11.762Z,65.80
2017-05-27T06:21:39.054Z,65.70
2017-05-27T06:24:06.337Z,65.80
2017-05-27T06:26:33.714Z,65.80
2017-05-27T06:29:01.003Z,65.40
2017-05-27T06:31:28.285Z,65.50
2017-05-27T06:33:55.666Z,65.50
2017-05-27T06:36:23.079Z,65.20
2017-05-27T06:38:50.397Z,65.30
2017-05-27T06:41:17.734Z,65.10
2017-05-27T06:43:45.102Z,65.10
2017-05-27T06:46:12.461Z,65.00
2017-05-27T06:48:39.794Z,65.20
2017-05-27T06:51:07.174Z,65.30
2017-05-27T06:53:34.534Z,65.30
2017-05-27T06:56:01.457Z,65.30
2017-05-27T06:58:28.747Z,64.50
2017-05-27T07:00:56.035Z,64.70
2017-05-27T07:03:22.963Z,64.70
2017-05-27T07:05:50.253Z,64.60
2017-05-27T07:08:17.650Z,64.50
2017-05-27T07:10:45.099Z,63.80
2017-05-27T07:13:12.458Z,63.70
2017-05-27T07:15:39.820Z,63.70
2017-05-27T07:18:07.169Z,64.00
2017-05-27T07:20:34.562Z,64.10
2017-05-27T07:23:01.842Z,63.60
2017-05-27T07:25:29.136Z,63.30
2017-05-27T07:27:56.465Z,63.50
2017-05-27T07:30:23.847Z,63.40
2017-05-27T07:32:51.211Z,63.20
2017-05-27T07:35:18.546Z,62.60
2017-05-27T07:37:45.924Z,63.10
2017-05-27T07:40:13.233Z,63.00
2017-05-27T07:42:40.626Z,62.30
2017-05-27T07:45:07.994Z,62.50
2017-05-27T07:47:35.341Z,62.20
2017-05-27T07:50:02.694Z,61.40
2017-05-27T07:52:29.974Z,61.80
2017-05-27T07:54:57.411Z,62.20
2017-05-27T07:57:24.699Z,61.90
2017-05-27T07:59:52.017Z,61.70
2017-05-27T08:02:19.347Z,60.70
2017-05-27T08:04:46.725Z,60.90
2017-05-27T08:07:13.618Z,60.90
2017-05-27T08:09:40.961Z,61.30
2017-05-27T08:12:08.385Z,60.60
2017-05-27T08:14:35.670Z,60.40
2017-05-27T08:17:02.994Z,59.80
2017-05-27T08:19:29.952Z,59.80
2017-05-27T08:21:57.299Z,59.30
2017-05-27T08:24:24.658Z,58.90
2017-05-27T08:26:52.014Z,59.30
2017-05-27T08:29:19.371Z,59.10
2017-05-27T08:31:46.697Z,58.50
2017-05-27T08:34:14.079Z,59.20
2017-05-27T08:36:41.022Z,59.20
2017-05-27T08:39:08.381Z,58.30
2017-05-27T08:41:35.738Z,58.90
2017-05-27T08:44:02.625Z,58.90
2017-05-27T08:46:30.070Z,59.10
2017-05-27T08:48:56.954Z,59.10
2017-05-27T08:51:24.238Z,58.80
2017-05-27T08:53:51.595Z,58.50
2017-05-27T08:56:18.491Z,58.50
2017-05-27T08:58:45.838Z,57.50
2017-05-27T09:01:13.270Z,58.00
2017-05-27T09:03:40.163Z,58.00
2017-05-27T09:06:07.461Z,58.30
2017-05-27T09:08:34.418Z,58.30
2017-05-27T09:11:01.759Z,57.90
2017-05-27T09:13:29.136Z,57.60
2017-05-27T09:15:56.162Z,57.60
2017-05-27T09:18:23.458Z,57.40
2017-05-27T09:20:50.738Z,57.60
2017-05-27T09:23:17.821Z,57.60
2017-05-27T09:25:45.194Z,56.90
2017-05-27T09:28:12.574Z,57.00
2017-05-27T09:30:39.990Z,56.60
2017-05-27T09:33:07.346Z,57.10
2017-05-27T09:35:34.635Z,57.20
2017-05-27T09:38:01.967Z,57.30
2017-05-27T09:40:28.845Z,57.30
2017-05-27T09:42:56.154Z,57.50
2017-05-27T09:45:23.522Z,57.00
2017-05-27T09:47:50.817Z,56.70
2017-05-27T09:50:18.129Z,57.10
2017-05-27T09:52:45.455Z,57.20
2017-05-27T09:55:12.373Z,57.20
2017-05-27T09:57:39.278Z,57.20
2017-05-27T10:00:06.738Z,56.60
2017-05-27T10:02:34.085Z,56.50
2017-05-27T10:05:01.378Z,56.80
2017-05-27T10:07:28.742Z,57.10
2017-05-27T10:09:56.021Z,57.60
2017-05-27T10:12:23.317Z,57.00
2017-05-27T10:14:50.646Z,56.60
2017-05-27T10:17:17.926Z,56.00
2017-05-27T10:19:45.266Z,56.40
2017-05-27T10:22:12.597Z,56.40
2017-05-27T10:24:39.881Z,55.50
2017-05-27T10:27:06.826Z,55.50
2017-05-27T10:29:33.873Z,56.10
2017-05-27T10:32:00.766Z,56.10
2017-05-27T10:34:28.070Z,55.60
2017-05-27T10:36:55.434Z,55.40
2017-05-27T10:39:22.781Z,55.60
2017-05-27T10:41:50.068Z,55.70
2017-05-27T10:44:17.394Z,55.50
2017-05-27T10:46:44.754Z,55.80
2017-05-27T10:49:12.049Z,55.30
2017-05-27T10:51:39.373Z,55.30
2017-05-27T10:54:06.257Z,55.30
2017-05-27T10:56:33.549Z,54.70
2017-05-27T10:59:00.953Z,55.50
2017-05-27T11:01:28.270Z,54.80
2017-05-27T11:03:55.634Z,54.40
2017-05-27T11:06:22.566Z,54.40
2017-05-27T11:08:49.862Z,55.00
2017-05-27T11:11:17.154Z,53.70
2017-05-27T11:13:44.136Z,53.70
2017-05-27T11:16:11.485Z,53.90
2017-05-27T11:18:38.777Z,53.20
2017-05-27T11:21:06.198Z,53.90
2017-05-27T11:23:33.478Z,53.30
2017-05-27T11:26:00.370Z,53.30
2017-05-27T11:28:27.756Z,52.80
2017-05-27T11:30:55.148Z,52.50
2017-05-27T11:33:22.035Z,52.50
2017-05-27T11:35:49.370Z,51.40
2017-05-27T11:38:16.659Z,52.00
2017-05-27T11:40:44.021Z,52.70
2017-05-27T11:43:10.962Z,52.70
2017-05-27T11:45:38.326Z,51.70
2017-05-27T11:48:05.614Z,51.70
2017-05-27T11:50:32.582Z,51.70
2017-05-27T11:52:59.865Z,51.20
2017-05-27T11:55:27.147Z,51.90
2017-05-27T11:57:54.590Z,51.40
2017-05-27T12:00:21.986Z,51.70
2017-05-27T12:02:49.297Z,51.80
2017-05-27T12:05:16.628Z,51.80
2017-05-27T12:07:43.910Z,51.90
2017-05-27T12:10:11.319Z,51.40
2017-05-27T12:12:38.273Z,51.40
2017-05-27T12:15:05.587Z,51.90
2017-05-27T12:17:32.910Z,52.10
2017-05-27T12:20:00.276Z,51.10
2017-05-27T12:22:27.562Z,51.90
2017-05-27T12:24:54.846Z,51.80
2017-05-27T12:27:22.241Z,52.00
2017-05-27T12:29:49.130Z,51.90
2017-05-27T12:32:16.415Z,52.50
2017-05-27T12:34:43.797Z,52.00
2017-05-27T12:37:11.082Z,52.30
2017-05-27T12:39:38.374Z,52.10
2017-05-27T12:42:05.705Z,52.00
2017-05-27T12:44:33.000Z,52.10
2017-05-27T12:47:00.374Z,52.20
2017-05-27T12:49:27.741Z,52.00
2017-05-27T12:51:55.100Z,52.10
2017-05-27T12:54:22.386Z,52.20
2017-05-27T12:56:49.693Z,52.10
2017-05-27T12:59:17.014Z,51.10
2017-05-27T13:01:44.299Z,52.00
2017-05-27T13:04:11.617Z,52.00
2017-05-27T13:06:38.510Z,52.00
2017-05-27T13:09:05.862Z,51.90
2017-05-27T13:11:33.257Z,52.00
2017-05-27T13:14:00.142Z,52.00
2017-05-27T13:16:27.422Z,52.10
2017-05-27T13:18:54.878Z,52.20
2017-05-27T13:21:22.171Z,51.80
2017-05-27T13:23:49.453Z,52.20
2017-05-27T13:26:16.842Z,51.90
2017-05-27T13:28:44.130Z,51.10
2017-05-27T13:31:11.454Z,50.60
2017-05-27T13:33:38.402Z,50.60
2017-05-27T13:36:05.935Z,50.10
2017-05-27T13:38:33.318Z,50.40
2017-05-27T13:41:00.689Z,49.70
2017-05-27T13:43:28.003Z,49.80
2017-05-27T13:45:55.388Z,49.80
2017-05-27T13:48:22.345Z,49.80
2017-05-27T13:50:49.682Z,49.70
2017-05-27T13:53:16.637Z,49.70
2017-05-27T13:55:43.679Z,49.20
2017-05-27T13:58:10.978Z,50.10
2017-05-27T14:00:38.265Z,50.10
2017-05-27T14:03:05.598Z,50.10
2017-05-27T14:05:32.885Z,50.90
2017-05-27T14:08:00.266Z,50.60
2017-05-27T14:10:27.587Z,50.70
2017-05-27T14:12:54.965Z,50.80
2017-05-27T14:15:22.340Z,50.50
2017-05-27T14:17:49.646Z,50.10
2017-05-27T14:20:17.030Z,49.80
2017-05-27T14:22:44.634Z,49.40
2017-05-27T14:25:11.949Z,50.00
2017-05-27T14:27:39.237Z,50.10
2017-05-27T14:30:06.675Z,49.60
2017-05-27T14:32:34.017Z,49.80
2017-05-27T14:35:01.318Z,48.80
2017-05-27T14:37:28.777Z,48.60
2017-05-27T14:39:56.091Z,49.90
2017-05-27T14:42:23.375Z,50.60
2017-05-27T14:44:50.709Z,50.50
2017-05-27T14:47:17.999Z,49.80
2017-05-27T14:49:45.315Z,49.70
2017-05-27T14:52:12.670Z,49.80
2017-05-27T14:54:39.963Z,50.00
2017-05-27T14:57:07.283Z,50.00
2017-05-27T14:59:34.633Z,49.00
2017-05-27T15:02:01.934Z,49.10
2017-05-27T15:04:29.322Z,48.40
2017-05-27T15:06:56.675Z,48.80
2017-05-27T15:09:24.279Z,49.50
2017-05-27T15:11:51.571Z,49.40
2017-05-27T15:14:18.942Z,49.30
2017-05-27T15:16:46.242Z,49.50
2017-05-27T15:19:13.537Z,48.90
2017-05-27T15:21:40.886Z,49.00
2017-05-27T15:24:08.171Z,48.90
2017-05-27T15:26:35.449Z,49.00
2017-05-27T15:29:02.478Z,49.00
2017-05-27T15:31:29.769Z,48.90
2017-05-27T15:33:57.188Z,48.70
2017-05-27T15:36:24.556Z,48.60
2017-05-27T15:38:51.899Z,48.90
2017-05-27T15:41:19.218Z,48.40
2017-05-27T15:43:46.503Z,49.00
2017-05-27T15:46:13.554Z,49.00
2017-05-27T15:48:40.845Z,48.00
2017-05-27T15:51:08.134Z,48.40
2017-05-27T15:53:35.467Z,47.80
2017-05-27T15:56:02.751Z,48.10
2017-05-27T15:58:30.131Z,48.20
2017-05-27T16:00:57.458Z,47.90
2017-05-27T16:03:24.864Z,47.90
2017-05-27T16:05:52.147Z,48.00
2017-05-27T16:08:19.472Z,48.10
2017-05-27T16:10:46.754Z,47.80
2017-05-27T16:13:14.062Z,47.70
2017-05-27T16:15:41.420Z,47.70
2017-05-27T16:18:08.783Z,47.40
2017-05-27T16:20:36.070Z,47.50
2017-05-27T16:23:03.425Z,46.60
2017-05-27T16:25:30.744Z,46.30
2017-05-27T16:27:58.090Z,46.30
2017-05-27T16:30:25.430Z,45.50
2017-05-27T16:32:52.331Z,45.50
2017-05-27T16:35:19.235Z,44.30
2017-05-27T16:37:46.594Z,42.60
2017-05-27T16:40:13.950Z,42.20
2017-05-27T16:42:41.321Z,41.90
2017-05-27T16:45:08.656Z,41.40
2017-05-27T16:47:36.029Z,41.40
2017-05-27T16:50:03.401Z,41.60
2017-05-27T16:52:30.418Z,41.60
2017-05-27T16:54:57.782Z,41.40
2017-05-27T16:57:25.142Z,40.60
2017-05-27T16:59:52.083Z,40.60
2017-05-27T17:02:19.477Z,40.60
2017-05-27T17:04:46.795Z,40.60
2017-05-27T17:07:13.747Z,40.60
2017-05-27T17:09:41.099Z,41.00
2017-05-27T17:12:08.387Z,41.40
2017-05-27T17:14:35.318Z,41.40
2017-05-27T17:17:02.342Z,41.40
2017-05-27T17:19:29.701Z,41.00
2017-05-27T17:21:57.054Z,40.80
2017-05-27T17:24:24.418Z,40.80
2017-05-27T17:26:51.710Z,40.80
2017-05-27T17:29:19.026Z,40.70
2017-05-27T17:31:45.966Z,40.60
2017-05-27T17:34:13.250Z,40.30
2017-05-27T17:36:40.178Z,40.30
2017-05-27T17:39:07.534Z,40.20
2017-05-27T17:41:34.819Z,40.50
2017-05-27T17:44:02.230Z,40.80
2017-05-27T17:46:29.522Z,41.00
2017-05-27T17:48:56.814Z,40.90
2017-05-27T17:51:24.210Z,41.10
2017-05-27T17:53:51.561Z,41.10
2017-05-27T17:56:18.915Z,41.30
2017-05-27T17:58:46.274Z,41.90
2017-05-27T18:01:13.214Z,41.90
2017-05-27T18:03:40.518Z,43.30
2017-05-27T18:06:07.927Z,44.20
2017-05-27T18:08:35.290Z,45.10
2017-05-27T18:11:02.681Z,45.80
2017-05-27T18:13:30.097Z,46.50
2017-05-27T18:15:57.463Z,47.30
2017-05-27T18:18:24.756Z,47.90
2017-05-27T18:20:52.135Z,48.30
2017-05-27T18:23:19.437Z,48.70
2017-05-27T18:25:46.778Z,49.50
2017-05-27T18:28:14.134Z,50.30
2017-05-27T18:30:41.418Z,50.60
2017-05-27T18:33:08.754Z,51.10
2017-05-27T18:35:35.694Z,51.10
2017-05-27T18:38:02.984Z,51.70
2017-05-27T18:40:29.875Z,51.70
2017-05-27T18:42:57.199Z,52.50
2017-05-27T18:45:24.498Z,52.40
2017-05-27T18:47:51.403Z,52.40
2017-05-27T18:50:18.747Z,53.00
2017-05-27T18:52:46.060Z,53.20
2017-05-27T18:55:13.417Z,53.30
2017-05-27T18:57:40.769Z,53.40
2017-05-27T19:00:08.126Z,53.50
2017-05-27T19:02:35.065Z,53.60
2017-05-27T19:05:02.402Z,53.80
2017-05-27T19:07:29.689Z,54.30
2017-05-27T19:09:57.042Z,54.30
2017-05-27T19:12:24.358Z,54.70
2017-05-27T19:14:51.750Z,54.70
2017-05-27T19:17:19.171Z,54.60
2017-05-27T19:19:46.533Z,54.80
2017-05-27T19:22:13.881Z,54.90
2017-05-27T19:24:41.241Z,55.20
2017-05-27T19:27:08.608Z,55.20
2017-05-27T19:29:35.965Z,55.30
2017-05-27T19:32:03.311Z,55.50
2017-05-27T19:34:30.615Z,55.70
2017-05-27T19:36:57.894Z,55.70
2017-05-27T19:39:25.269Z,55.80
2017-05-27T19:41:52.665Z,55.90
2017-05-27T19:44:19.948Z,56.20
2017-05-27T19:46:47.337Z,56.50
2017-05-27T19:49:14.630Z,56.80
2017-05-27T19:51:42.054Z,57.10
2017-05-27T19:54:09.406Z,57.00
2017-05-27T19:56:36.698Z,57.30
2017-05-27T19:59:04.114Z,57.20
2017-05-27T20:01:31.398Z,57.40
2017-05-27T20:03:58.302Z,57.40
2017-05-27T20:06:25.636Z,57.60
2017-05-27T20:08:52.930Z,57.70
2017-05-27T20:11:20.220Z,58.10
2017-05-27T20:13:47.225Z,58.10
2017-05-27T20:16:14.519Z,57.90
2017-05-27T20:18:41.807Z,58.20
2017-05-27T20:21:09.194Z,58.10
2017-05-27T20:23:36.554Z,58.70
2017-05-27T20:26:03.839Z,58.70
2017-05-27T20:28:31.181Z,59.20
2017-05-27T20:30:58.473Z,59.30
2017-05-27T20:33:25.778Z,59.70
2017-05-27T20:35:53.129Z,59.90
2017-05-27T20:38:20.483Z,60.00
2017-05-27T20:40:47.847Z,60.30
2017-05-27T20:43:15.186Z,60.60
2017-05-27T20:45:42.469Z,60.30
2017-05-27T20:48:09.795Z,60.50
2017-05-27T20:50:37.147Z,60.80
2017-05-27T20:53:04.440Z,60.60
2017-05-27T20:55:31.764Z,60.90
2017-05-27T20:57:59.045Z,60.90
2017-05-27T21:00:26.389Z,60.80
2017-05-27T21:02:53.826Z,61.10
2017-05-27T21:05:21.181Z,61.20
2017-05-27T21:07:48.475Z,61.60
2017-05-27T21:10:15.799Z,61.60
2017-05-27T21:12:43.150Z,61.70
2017-05-27T21:15:10.433Z,61.90
2017-05-27T21:17:37.853Z,61.90
2017-05-27T21:20:04.747Z,61.90
2017-05-27T21:22:32.033Z,62.50
2017-05-27T21:24:59.411Z,62.50
2017-05-27T21:27:26.703Z,62.70
2017-05-27T21:29:54.023Z,63.10
2017-05-27T21:32:21.351Z,62.80
2017-05-27T21:34:48.633Z,63.20
2017-05-27T21:37:16.026Z,63.30
2017-05-27T21:39:42.969Z,63.30
2017-05-27T21:42:09.924Z,63.30
2017-05-27T21:44:37.208Z,63.30
2017-05-27T21:47:04.635Z,63.50
2017-05-27T21:49:32.004Z,63.60
2017-05-27T21:51:59.342Z,63.50
2017-05-27T21:54:26.710Z,63.50
2017-05-27T21:56:54.033Z,63.70
2017-05-27T21:59:21.410Z,63.90
2017-05-27T22:01:48.698Z,64.40
2017-05-27T22:04:15.722Z,64.40
2017-05-27T22:06:43.009Z,64.50
2017-05-27T22:09:10.295Z,64.50
2017-05-27T22:11:37.682Z,64.70
2017-05-27T22:14:04.574Z,64.70
2017-05-27T22:16:31.453Z,64.90
2017-05-27T22:18:58.797Z,65.20
2017-05-27T22:21:25.685Z,65.20
2017-05-27T22:23:52.577Z,65.30
2017-05-27T22:26:19.984Z,65.20
2017-05-27T22:28:47.334Z,65.30
2017-05-27T22:31:14.629Z,65.30
2017-05-27T22:33:41.560Z,65.30
2017-05-27T22:36:08.881Z,65.50
2017-05-27T22:38:36.245Z,65.40
2017-05-27T22:41:03.594Z,65.20
2017-05-27T22:43:30.946Z,64.90
2017-05-27T22:45:58.310Z,65.10
2017-05-27T22:48:25.662Z,65.50
2017-05-27T22:50:53.023Z,65.80
2017-05-27T22:53:20.416Z,66.10
2017-05-27T22:55:47.726Z,66.10
2017-05-27T22:58:15.061Z,66.20
2017-05-27T23:00:42.438Z,65.90
2017-05-27T23:03:09.388Z,65.90
2017-05-27T23:05:36.342Z,65.80
2017-05-27T23:08:03.629Z,66.10
2017-05-27T23:10:30.919Z,66.40
2017-05-27T23:12:58.303Z,66.50
2017-05-27T23:15:25.616Z,66.50
2017-05-27T23:17:52.894Z,66.20
2017-05-27T23:20:20.243Z,66.00
2017-05-27T23:22:47.624Z,66.00
2017-05-27T23:25:14.914Z,66.30
2017-05-27T23:27:42.256Z,66.30
2017-05-27T23:30:09.192Z,66.30
2017-05-27T23:32:36.539Z,66.60
2017-05-27T23:35:03.895Z,66.50
2017-05-27T23:37:31.265Z,66.70
2017-05-27T23:39:58.546Z,67.00
2017-05-27T23:42:25.959Z,67.10
2017-05-27T23:44:53.246Z,67.20
2017-05-27T23:47:20.614Z,67.20
2017-05-27T23:49:47.933Z,67.20
2017-05-27T23:52:15.230Z,67.30
2017-05-27T23:54:42.534Z,67.40
2017-05-27T23:57:09.906Z,67.20
2017-05-27T23:59:36.795Z,67.20
